Grand Bend, Canada
Current Conditions -  °F | °C
As of 8:15 AM on Tuesday 21 Oct 2014 (Local Time) from CYZR Reporting Station
Light Rain Light Rain  
Wind Chill: 42°   Ceiling: 2500
Heat Index: 48°   Visibility: 9mi
Dew Point: 43°   Wind: 18mph
Humidity: 82%   Direction: 350°N
Pressure: 29.93"   Gusts: 26mph
Location:  43.32°N, 81.75°W
Report Text: CYZR 211215Z AUTO 35016G23KT 9SM -RA SCT019 OVC025 09/06 A2993 RMK SLP137
Loading
Personal Weather Stations






























Interactive Weather Map
Tropical Storm Tracking
New forecast layout! Learn more

10-Day Weather Forecast

Advertisements
Track Severe Weather on mobile